createdAt,value
2019-04-14T00:00:38.308Z,3.33
2019-04-14T00:03:08.870Z,3.13
2019-04-14T00:05:38.519Z,5.70
2019-04-14T00:08:07.372Z,4.23
2019-04-14T00:10:37.793Z,3.77
2019-04-14T00:13:06.749Z,4.73
2019-04-14T00:15:41.114Z,3.13
2019-04-14T00:18:05.694Z,3.73
2019-04-14T00:20:35.778Z,3.23
2019-04-14T00:23:04.451Z,3.97
2019-04-14T00:25:33.012Z,3.90
2019-04-14T00:28:01.288Z,3.77
2019-04-14T00:30:29.835Z,3.30
2019-04-14T00:32:59.734Z,3.70
2019-04-14T00:35:36.434Z,2.83
2019-04-14T00:38:19.559Z,3.50
2019-04-14T00:41:05.177Z,2.93
2019-04-14T00:43:41.741Z,2.83
2019-04-14T00:46:23.678Z,3.07
2019-04-14T00:48:52.280Z,4.37
2019-04-14T00:51:20.547Z,4.00
2019-04-14T00:53:49.165Z,3.80
2019-04-14T00:56:17.769Z,6.20
2019-04-14T00:58:46.042Z,3.93
2019-04-14T01:01:15.393Z,2.53
2019-04-14T01:03:43.975Z,2.60
2019-04-14T01:06:12.475Z,3.47
2019-04-14T01:08:42.343Z,3.70
2019-04-14T01:11:11.743Z,7.07
2019-04-14T01:13:40.213Z,3.30
2019-04-14T01:16:14.990Z,2.50
2019-04-14T01:18:38.889Z,3.07
2019-04-14T01:21:07.157Z,2.87
2019-04-14T01:23:35.420Z,3.53
2019-04-14T01:26:05.043Z,2.40
2019-04-14T01:28:33.531Z,2.47
2019-04-14T01:31:03.251Z,2.80
2019-04-14T01:33:31.783Z,3.17
2019-04-14T01:36:01.611Z,3.27
2019-04-14T01:38:30.380Z,2.43
2019-04-14T01:40:59.943Z,3.00
2019-04-14T01:43:28.395Z,2.70
2019-04-14T01:46:05.199Z,2.83
2019-04-14T01:48:27.969Z,2.77
2019-04-14T01:51:04.888Z,3.47
2019-04-14T01:53:42.218Z,3.63
2019-04-14T01:56:12.479Z,2.30
2019-04-14T01:58:45.402Z,2.70
2019-04-14T02:01:15.667Z,2.47
2019-04-14T02:03:43.957Z,2.73
2019-04-14T02:06:13.546Z,2.60
2019-04-14T02:08:41.960Z,2.50
2019-04-14T02:11:11.634Z,3.40
2019-04-14T02:13:39.965Z,2.60
2019-04-14T02:16:18.780Z,2.80
2019-04-14T02:18:38.503Z,2.43
2019-04-14T02:21:06.939Z,2.20
2019-04-14T02:23:36.473Z,3.00
2019-04-14T02:26:04.942Z,2.40
2019-04-14T02:28:33.675Z,2.97
2019-04-14T02:31:21.400Z,2.37
2019-04-14T02:34:20.428Z,2.10
2019-04-14T02:36:35.736Z,3.03
2019-04-14T02:39:07.689Z,3.30
2019-04-14T02:41:39.935Z,2.50
2019-04-14T02:44:06.453Z,2.10
2019-04-14T02:46:31.047Z,2.77
2019-04-14T02:48:58.574Z,5.70
2019-04-14T02:51:31.303Z,3.00
2019-04-14T02:54:06.820Z,2.10
2019-04-14T02:56:29.212Z,1.97
2019-04-14T03:01:35.386Z,2.90
2019-04-14T03:03:56.245Z,2.93
2019-04-14T03:06:26.124Z,2.57
2019-04-14T03:09:12.572Z,3.10
2019-04-14T03:16:38.817Z,2.03
2019-04-14T03:19:01.966Z,3.00
2019-04-14T03:21:45.176Z,2.67
2019-04-14T03:24:12.988Z,2.73
2019-04-14T03:26:51.927Z,2.97
2019-04-14T03:29:40.765Z,3.17
2019-04-14T03:32:13.997Z,2.13
2019-04-14T03:39:27.247Z,1.70
2019-04-14T03:41:56.814Z,3.13
2019-04-14T03:44:33.154Z,2.50
2019-04-14T03:46:57.131Z,2.63
2019-04-14T03:54:20.186Z,1.70
2019-04-14T03:56:53.663Z,2.23
2019-04-14T03:59:22.296Z,3.10
2019-04-14T04:01:50.562Z,2.00
2019-04-14T04:04:18.877Z,2.17
2019-04-14T04:06:48.458Z,3.10
2019-04-14T04:09:17.166Z,2.13
2019-04-14T04:11:45.572Z,2.07
2019-04-14T04:14:14.059Z,3.37
2019-04-14T04:17:01.565Z,2.73
2019-04-14T04:19:34.488Z,2.10
2019-04-14T04:22:21.522Z,2.80
2019-04-14T04:24:54.380Z,3.00
2019-04-14T04:27:41.704Z,2.03
2019-04-14T04:30:14.934Z,2.17
2019-04-14T04:32:47.998Z,2.00
2019-04-14T04:35:18.226Z,2.00
2019-04-14T04:37:54.197Z,2.27
2019-04-14T04:40:24.691Z,2.17
2019-04-14T04:42:53.291Z,2.43
2019-04-14T04:45:21.583Z,2.20
2019-04-14T04:47:49.887Z,3.53
2019-04-14T04:50:19.233Z,1.80
2019-04-14T04:52:47.903Z,1.80
2019-04-14T04:55:17.649Z,1.67
2019-04-14T04:57:46.559Z,2.50
2019-04-14T05:00:15.614Z,3.93
2019-04-14T05:02:44.211Z,3.00
2019-04-14T05:05:49.309Z,2.97
2019-04-14T05:08:19.314Z,1.90
2019-04-14T05:10:56.747Z,2.23
2019-04-14T05:13:27.018Z,2.37
2019-04-14T05:15:56.026Z,2.83
2019-04-14T05:18:24.767Z,1.67
2019-04-14T05:20:53.349Z,2.17
2019-04-14T05:23:21.938Z,2.27
2019-04-14T05:25:51.643Z,1.80
2019-04-14T05:28:20.215Z,4.33
2019-04-14T05:30:48.857Z,4.53
2019-04-14T05:33:18.325Z,2.60
2019-04-14T05:35:47.159Z,3.30
2019-04-14T05:38:16.824Z,2.97
2019-04-14T05:40:45.473Z,4.90
2019-04-14T05:43:26.503Z,10.13
2019-04-14T05:45:43.793Z,5.90
2019-04-14T05:48:12.090Z,4.83
2019-04-14T05:50:40.702Z,4.83
2019-04-14T05:53:08.979Z,5.00
2019-04-14T05:55:37.629Z,4.30
2019-04-14T05:58:05.960Z,4.00
2019-04-14T06:00:34.813Z,3.50
2019-04-14T06:03:03.817Z,4.93
2019-04-14T06:05:32.315Z,4.43
2019-04-14T06:08:00.963Z,3.33
2019-04-14T06:10:29.309Z,4.27
2019-04-14T06:12:57.937Z,3.97
2019-04-14T06:15:26.254Z,7.80
2019-04-14T06:17:54.744Z,11.13
2019-04-14T06:20:23.018Z,6.93
2019-04-14T06:22:51.329Z,7.07
2019-04-14T06:25:19.655Z,24.83
2019-04-14T06:27:47.927Z,20.90
2019-04-14T06:30:23.787Z,10.37
2019-04-14T06:32:52.433Z,7.73
2019-04-14T06:35:22.700Z,11.67
2019-04-14T06:37:59.063Z,11.80
2019-04-14T06:40:29.037Z,10.90
2019-04-14T06:42:57.701Z,9.43
2019-04-14T06:45:26.340Z,8.40
2019-04-14T06:47:54.664Z,9.97
2019-04-14T06:50:22.931Z,6.30
2019-04-14T06:52:51.209Z,17.70
2019-04-14T06:55:19.874Z,7.17
2019-04-14T06:57:48.155Z,13.70
2019-04-14T07:00:16.434Z,6.37
2019-04-14T07:02:45.568Z,5.37
2019-04-14T07:05:15.007Z,15.07
2019-04-14T07:07:43.400Z,21.43
2019-04-14T07:10:11.702Z,13.77
2019-04-14T07:12:42.921Z,12.73
2019-04-14T07:15:10.700Z,14.30
2019-04-14T07:17:39.044Z,8.30
2019-04-14T07:20:07.803Z,16.87
2019-04-14T07:22:36.072Z,9.93
2019-04-14T07:25:05.172Z,13.07
2019-04-14T07:27:33.456Z,15.30
2019-04-14T07:30:06.507Z,18.73
2019-04-14T07:32:36.719Z,18.70
2019-04-14T07:35:16.867Z,13.07
2019-04-14T07:37:46.883Z,18.07
2019-04-14T07:40:17.119Z,9.70
2019-04-14T07:42:47.028Z,14.43
2019-04-14T07:45:26.102Z,16.60
2019-04-14T07:48:02.018Z,11.30
2019-04-14T07:50:31.934Z,13.33
2019-04-14T07:53:04.764Z,14.77
2019-04-14T07:55:37.355Z,8.60
2019-04-14T07:58:07.281Z,8.77
2019-04-14T08:00:37.184Z,11.97
2019-04-14T08:03:13.148Z,17.83
2019-04-14T08:05:42.911Z,17.90
2019-04-14T08:08:11.205Z,17.00
2019-04-14T08:10:39.851Z,18.40
2019-04-14T08:13:08.136Z,12.73
2019-04-14T08:15:36.491Z,6.77
2019-04-14T08:18:04.906Z,10.57
2019-04-14T08:20:34.636Z,10.13
2019-04-14T08:23:03.619Z,10.90
2019-04-14T08:25:32.267Z,7.87
2019-04-14T08:28:00.531Z,9.37
2019-04-14T08:30:29.168Z,7.03
2019-04-14T08:32:57.752Z,8.73
2019-04-14T08:35:26.048Z,4.70
2019-04-14T08:37:54.326Z,5.93
2019-04-14T08:40:23.231Z,6.90
2019-04-14T08:42:53.124Z,6.70
2019-04-14T08:45:34.667Z,6.87
2019-04-14T08:48:07.589Z,7.97
2019-04-14T08:50:40.389Z,4.67
2019-04-14T08:53:10.283Z,5.10
2019-04-14T08:55:43.154Z,7.77
2019-04-14T08:58:15.827Z,4.97
2019-04-14T09:00:45.744Z,5.43
2019-04-14T09:03:18.075Z,7.80
2019-04-14T09:05:59.869Z,5.00
2019-04-14T09:08:30.141Z,5.63
2019-04-14T09:11:06.113Z,4.07
2019-04-14T09:13:34.690Z,5.33
2019-04-14T09:16:02.986Z,5.63
2019-04-14T09:18:31.250Z,5.77
2019-04-14T09:20:59.537Z,5.07
2019-04-14T09:23:28.095Z,3.83
2019-04-14T09:25:56.701Z,6.13
2019-04-14T09:28:24.975Z,4.87
2019-04-14T09:30:53.286Z,5.90
2019-04-14T09:33:21.928Z,3.93
2019-04-14T09:35:50.527Z,4.53
2019-04-14T09:38:19.111Z,6.20
2019-04-14T09:40:47.692Z,6.00
2019-04-14T09:43:16.260Z,4.10
2019-04-14T09:45:44.959Z,2.60
2019-04-14T09:48:13.227Z,6.53
2019-04-14T09:50:41.519Z,4.47
2019-04-14T09:53:10.191Z,2.73
2019-04-14T09:55:38.787Z,4.13
2019-04-14T09:58:07.379Z,3.60
2019-04-14T10:00:37.342Z,4.13
2019-04-14T10:03:05.701Z,3.30
2019-04-14T10:05:34.348Z,3.60
2019-04-14T10:08:02.623Z,2.83
2019-04-14T10:10:30.951Z,4.90
2019-04-14T10:12:59.334Z,3.10
2019-04-14T10:15:27.593Z,3.33
2019-04-14T10:17:56.143Z,3.10
2019-04-14T10:20:24.427Z,4.50
2019-04-14T10:22:53.108Z,3.20
2019-04-14T10:25:21.776Z,2.57
2019-04-14T10:27:50.048Z,5.13
2019-04-14T10:30:18.647Z,2.67
2019-04-14T10:32:46.939Z,3.50
2019-04-14T10:35:15.540Z,2.53
2019-04-14T10:37:43.826Z,2.83
2019-04-14T10:40:12.112Z,3.60
2019-04-14T10:42:40.412Z,2.87
2019-04-14T10:45:09.028Z,9.73
2019-04-14T10:47:37.309Z,2.47
2019-04-14T10:50:05.577Z,3.03
2019-04-14T10:52:34.099Z,2.30
2019-04-14T10:55:02.675Z,3.30
2019-04-14T10:57:30.948Z,3.43
2019-04-14T10:59:59.534Z,3.50
2019-04-14T11:02:27.852Z,2.60
2019-04-14T11:04:56.107Z,2.03
2019-04-14T11:07:26.024Z,2.33
2019-04-14T11:09:54.318Z,2.60
2019-04-14T11:12:22.582Z,3.50
2019-04-14T11:14:51.127Z,2.47
2019-04-14T11:17:19.408Z,3.13
2019-04-14T11:19:47.971Z,3.00
2019-04-14T11:22:16.247Z,3.17
2019-04-14T11:24:44.524Z,2.93
2019-04-14T11:27:13.136Z,2.13
2019-04-14T11:29:41.400Z,2.07
2019-04-14T11:32:11.631Z,2.10
2019-04-14T11:34:41.555Z,3.00
2019-04-14T11:37:29.447Z,2.47
2019-04-14T11:39:58.071Z,2.23
2019-04-14T11:42:26.333Z,2.73
2019-04-14T11:44:55.039Z,2.37
2019-04-14T11:47:23.373Z,2.07
2019-04-14T11:49:52.005Z,2.47
2019-04-14T11:52:20.268Z,2.43
2019-04-14T11:54:48.547Z,3.13
2019-04-14T11:57:16.815Z,2.07
2019-04-14T11:59:46.825Z,2.10
2019-04-14T12:02:16.802Z,2.60
2019-04-14T12:04:46.767Z,2.47
2019-04-14T12:07:16.697Z,1.67
2019-04-14T12:09:47.030Z,2.77
2019-04-14T12:12:15.290Z,2.47
2019-04-14T12:14:43.581Z,2.07
2019-04-14T12:17:11.864Z,2.37
2019-04-14T12:19:40.135Z,1.70
2019-04-14T12:22:08.912Z,2.20
2019-04-14T12:24:37.826Z,1.77
2019-04-14T12:27:06.094Z,2.43
2019-04-14T12:29:34.839Z,3.37
2019-04-14T12:32:03.927Z,2.27
2019-04-14T12:34:32.775Z,1.93
2019-04-14T12:37:01.111Z,2.27
2019-04-14T12:39:29.386Z,1.60
2019-04-14T12:42:02.045Z,1.70
2019-04-14T12:44:43.830Z,1.93
2019-04-14T12:47:39.550Z,2.20
2019-04-14T12:50:06.666Z,2.67
2019-04-14T12:52:34.942Z,1.77
2019-04-14T12:55:03.992Z,2.73
2019-04-14T12:57:37.058Z,1.80
2019-04-14T13:00:07.887Z,1.73
2019-04-14T13:02:38.396Z,1.70
2019-04-14T13:05:06.681Z,1.57
2019-04-14T13:07:36.869Z,2.00
2019-04-14T13:10:06.774Z,1.97
2019-04-14T13:12:35.050Z,2.27
2019-04-14T13:15:04.460Z,2.37
2019-04-14T13:17:33.085Z,2.20
2019-04-14T13:20:01.352Z,1.43
2019-04-14T13:22:34.058Z,1.70
2019-04-14T13:25:00.268Z,2.03
2019-04-14T13:27:28.832Z,2.07
2019-04-14T13:29:57.430Z,2.53
2019-04-14T13:32:35.432Z,2.33
2019-04-14T13:34:55.774Z,1.43
2019-04-14T13:37:24.258Z,1.60
2019-04-14T13:39:52.918Z,1.50
2019-04-14T13:42:21.193Z,1.67
2019-04-14T13:44:49.468Z,2.17
2019-04-14T13:47:17.735Z,2.10
2019-04-14T13:49:46.320Z,2.07
2019-04-14T13:52:14.587Z,2.77
2019-04-14T13:54:42.851Z,1.40
2019-04-14T13:57:11.125Z,1.77
2019-04-14T13:59:39.401Z,1.47
2019-04-14T14:02:07.668Z,1.30
2019-04-14T14:04:36.293Z,1.67
2019-04-14T14:07:05.798Z,2.07
2019-04-14T14:09:34.054Z,1.50
2019-04-14T14:12:04.310Z,1.30
2019-04-14T14:14:34.639Z,1.83
2019-04-14T14:17:16.494Z,1.50
2019-04-14T14:19:52.240Z,1.60
2019-04-14T14:22:37.750Z,2.73
2019-04-14T14:25:13.567Z,1.50
2019-04-14T14:27:41.855Z,1.70
2019-04-14T14:30:11.759Z,1.60
2019-04-14T14:32:40.061Z,1.40
2019-04-14T14:35:08.766Z,1.50
2019-04-14T14:37:37.452Z,1.40
2019-04-14T14:40:05.950Z,1.30
2019-04-14T14:42:34.517Z,1.50
2019-04-14T14:45:04.858Z,1.20
2019-04-14T14:47:34.816Z,1.40
2019-04-14T14:50:21.180Z,1.03
2019-04-14T14:52:49.455Z,1.50
2019-04-14T14:55:17.747Z,1.27
2019-04-14T14:57:46.025Z,1.50
2019-04-14T15:00:31.215Z,1.40
2019-04-14T15:02:59.516Z,1.40
2019-04-14T15:05:27.801Z,1.30
2019-04-14T15:07:56.435Z,1.40
2019-04-14T15:10:24.700Z,1.97
2019-04-14T15:12:52.968Z,1.50
2019-04-14T15:15:21.235Z,1.47
2019-04-14T15:17:49.504Z,1.30
2019-04-14T15:20:17.771Z,2.03
2019-04-14T15:22:46.494Z,1.37
2019-04-14T15:25:14.835Z,1.87
2019-04-14T15:27:43.114Z,1.30
2019-04-14T15:30:13.031Z,1.37
2019-04-14T15:32:41.635Z,1.50
2019-04-14T15:35:10.043Z,1.57
2019-04-14T15:37:38.308Z,2.40
2019-04-14T15:40:06.657Z,1.30
2019-04-14T15:42:34.949Z,1.27
2019-04-14T15:45:03.836Z,1.30
2019-04-14T15:47:32.556Z,1.40
2019-04-14T15:50:00.820Z,1.23
2019-04-14T15:52:29.414Z,1.30
2019-04-14T15:54:57.700Z,1.23
2019-04-14T15:57:30.722Z,1.40
2019-04-14T16:00:18.836Z,1.90
2019-04-14T16:03:05.315Z,1.57
2019-04-14T16:05:40.684Z,1.30
2019-04-14T16:08:13.551Z,1.00
2019-04-14T16:10:52.492Z,1.30
2019-04-14T16:13:28.431Z,1.30
2019-04-14T16:16:04.317Z,1.77
2019-04-14T16:18:52.254Z,1.20
2019-04-14T16:21:20.567Z,2.20
2019-04-14T16:23:50.838Z,1.53
2019-04-14T16:26:36.791Z,1.20
2019-04-14T16:29:22.018Z,1.30
2019-04-14T16:32:03.808Z,1.10
2019-04-14T16:34:33.724Z,1.07
2019-04-14T16:37:02.396Z,1.30
2019-04-14T16:39:30.727Z,1.30
2019-04-14T16:41:59.421Z,0.90
2019-04-14T16:44:27.751Z,0.90
2019-04-14T16:46:56.015Z,1.30
2019-04-14T16:49:24.304Z,1.63
2019-04-14T16:52:00.049Z,1.20
2019-04-14T16:54:48.011Z,1.07
2019-04-14T16:57:34.382Z,2.03
2019-04-14T17:00:03.107Z,1.10
2019-04-14T17:02:31.381Z,1.97
2019-04-14T17:04:59.653Z,1.27
2019-04-14T17:07:28.002Z,0.80
2019-04-14T17:09:56.283Z,1.03
2019-04-14T17:12:24.551Z,1.00
2019-04-14T17:15:09.355Z,0.97
2019-04-14T17:17:42.391Z,2.10
2019-04-14T17:20:18.441Z,1.07
2019-04-14T17:22:54.534Z,1.40
2019-04-14T17:25:24.483Z,1.30
2019-04-14T17:28:06.863Z,1.00
2019-04-14T17:30:37.080Z,1.20
2019-04-14T17:33:07.294Z,1.03
2019-04-14T17:35:40.271Z,1.70
2019-04-14T17:38:10.272Z,1.23
2019-04-14T17:40:55.396Z,1.63
2019-04-14T17:43:31.521Z,1.20
2019-04-14T17:46:02.179Z,1.03
2019-04-14T17:48:48.862Z,1.20
2019-04-14T17:51:21.739Z,1.20
2019-04-14T17:53:51.664Z,0.90
2019-04-14T17:56:21.913Z,0.97
2019-04-14T17:58:52.233Z,1.83
2019-04-14T18:01:34.430Z,1.13
2019-04-14T18:04:04.342Z,1.10
2019-04-14T18:06:52.562Z,1.27
2019-04-14T18:09:25.361Z,1.00
2019-04-14T18:12:07.219Z,0.87
2019-04-14T18:14:37.159Z,1.07
2019-04-14T18:17:16.446Z,0.97
2019-04-14T18:19:46.365Z,0.93
2019-04-14T18:22:14.948Z,1.07
2019-04-14T18:24:43.249Z,0.87
2019-04-14T18:27:11.511Z,1.63
2019-04-14T18:29:59.659Z,1.30
2019-04-14T18:32:38.096Z,0.80
2019-04-14T18:35:16.859Z,0.90
2019-04-14T18:38:02.358Z,1.00
2019-04-14T18:40:35.334Z,1.17
2019-04-14T18:43:14.578Z,1.20
2019-04-14T18:45:44.491Z,1.37
2019-04-14T18:48:26.709Z,0.90
2019-04-14T18:51:11.627Z,1.10
2019-04-14T18:53:50.690Z,1.10
2019-04-14T18:56:37.377Z,1.00
2019-04-14T18:59:07.264Z,1.20
2019-04-14T19:01:40.163Z,0.90
2019-04-14T19:04:08.523Z,1.20
2019-04-14T19:06:36.808Z,1.53
2019-04-14T19:09:07.268Z,0.90
2019-04-14T19:11:49.451Z,0.90
2019-04-14T19:14:19.711Z,1.13
2019-04-14T19:17:06.069Z,1.00
2019-04-14T19:19:36.001Z,1.20
2019-04-14T19:22:04.293Z,0.90
2019-04-14T19:24:32.552Z,0.90
2019-04-14T19:27:00.819Z,1.07
2019-04-14T19:29:29.463Z,0.70
2019-04-14T19:31:57.726Z,1.00
2019-04-14T19:34:26.304Z,0.80
2019-04-14T19:36:54.870Z,0.70
2019-04-14T19:39:23.138Z,0.90
2019-04-14T19:41:51.430Z,1.00
2019-04-14T19:44:19.701Z,1.00
2019-04-14T19:46:48.309Z,0.87
2019-04-14T19:49:16.571Z,0.87
2019-04-14T19:51:45.172Z,0.70
2019-04-14T19:54:13.743Z,1.77
2019-04-14T19:56:42.032Z,0.80
2019-04-14T19:59:10.303Z,0.70
2019-04-14T20:01:38.566Z,1.20
2019-04-14T20:04:06.863Z,1.03
2019-04-14T20:06:35.250Z,0.80
2019-04-14T20:09:04.774Z,1.37
2019-04-14T20:11:33.144Z,1.20
2019-04-14T20:14:01.421Z,0.80
2019-04-14T20:16:47.786Z,1.37
2019-04-14T20:19:38.584Z,1.00
2019-04-14T20:22:08.481Z,1.00
2019-04-14T20:24:54.846Z,0.90
2019-04-14T20:27:24.804Z,0.93
2019-04-14T20:29:54.757Z,0.70
2019-04-14T20:32:24.674Z,1.13
2019-04-14T20:34:52.958Z,0.73
2019-04-14T20:37:21.297Z,0.90
2019-04-14T20:39:49.918Z,0.70
2019-04-14T20:42:18.511Z,1.00
2019-04-14T20:44:47.078Z,1.00
2019-04-14T20:47:15.372Z,1.03
2019-04-14T20:49:44.054Z,0.60
2019-04-14T20:52:12.691Z,0.90
2019-04-14T20:54:41.068Z,0.80
2019-04-14T20:57:09.327Z,0.77
2019-04-14T20:59:37.891Z,1.03
2019-04-14T21:02:07.817Z,1.00
2019-04-14T21:04:52.890Z,0.77
2019-04-14T21:07:39.067Z,0.67
2019-04-14T21:10:12.270Z,0.83
2019-04-14T21:12:45.364Z,0.77
2019-04-14T21:15:24.362Z,0.70
2019-04-14T21:18:10.453Z,0.90
2019-04-14T21:20:40.369Z,1.00
2019-04-14T21:23:19.476Z,0.80
2019-04-14T21:26:00.890Z,0.80
2019-04-14T21:28:36.399Z,1.33
2019-04-14T21:31:24.164Z,0.93
2019-04-14T21:33:54.067Z,0.87
2019-04-14T21:36:23.973Z,1.23
2019-04-14T21:39:10.115Z,0.87
2019-04-14T21:41:39.108Z,0.90
2019-04-14T21:44:07.371Z,1.00
2019-04-14T21:46:35.639Z,0.80
2019-04-14T21:49:03.914Z,1.13
2019-04-14T21:51:50.050Z,0.73
2019-04-14T21:54:18.804Z,0.60
2019-04-14T21:56:48.821Z,0.80
2019-04-14T21:59:18.817Z,0.90
2019-04-14T22:02:05.272Z,0.77
2019-04-14T22:04:41.395Z,0.70
2019-04-14T22:07:29.895Z,0.70
2019-04-14T22:10:00.108Z,0.73
2019-04-14T22:12:29.114Z,0.83
2019-04-14T22:14:57.451Z,0.83
2019-04-14T22:17:25.729Z,0.77
2019-04-14T22:19:54.017Z,0.63
2019-04-14T22:22:22.704Z,0.70
2019-04-14T22:24:51.308Z,1.17
2019-04-14T22:27:19.664Z,0.80
2019-04-14T22:29:48.248Z,0.70
2019-04-14T22:32:16.524Z,0.70
2019-04-14T22:34:45.112Z,0.60
2019-04-14T22:37:13.472Z,0.60
2019-04-14T22:39:42.010Z,0.70
2019-04-14T22:42:10.575Z,1.17
2019-04-14T22:44:38.925Z,0.70
2019-04-14T22:47:07.569Z,0.60
2019-04-14T22:49:35.846Z,0.67
2019-04-14T22:52:04.290Z,0.70
2019-04-14T22:54:32.569Z,0.77
2019-04-14T22:57:00.845Z,0.73
2019-04-14T22:59:29.175Z,0.60
2019-04-14T23:01:59.119Z,0.80
2019-04-14T23:04:29.027Z,0.80
2019-04-14T23:06:58.935Z,0.70
2019-04-14T23:09:31.847Z,0.70
2019-04-14T23:12:02.083Z,0.70
2019-04-14T23:14:34.951Z,1.53
2019-04-14T23:17:23.300Z,0.70
2019-04-14T23:19:53.247Z,0.60
2019-04-14T23:22:39.946Z,0.60
2019-04-14T23:25:08.509Z,0.70
2019-04-14T23:27:36.802Z,0.53
2019-04-14T23:30:06.090Z,0.70
2019-04-14T23:32:34.348Z,0.60
2019-04-14T23:35:02.988Z,0.70
2019-04-14T23:37:31.316Z,0.70
2019-04-14T23:39:59.651Z,1.03
2019-04-14T23:42:27.947Z,0.70
2019-04-14T23:44:56.483Z,0.60
2019-04-14T23:47:25.472Z,0.53
2019-04-14T23:49:53.803Z,0.70
2019-04-14T23:52:22.263Z,0.70
2019-04-14T23:54:50.847Z,0.80
2019-04-14T23:57:19.125Z,0.67
2019-04-14T23:59:47.691Z,0.60
